createdAt,value
2019-02-21T00:00:52.797Z,8.13
2019-02-21T00:03:21.853Z,8.17
2019-02-21T00:05:51.179Z,8.16
2019-02-21T00:08:20.231Z,8.11
2019-02-21T00:10:49.186Z,8.18
2019-02-21T00:13:18.229Z,8.18
2019-02-21T00:15:47.233Z,8.13
2019-02-21T00:18:16.691Z,8.10
2019-02-21T00:20:45.734Z,8.09
2019-02-21T00:23:14.749Z,8.14
2019-02-21T00:25:44.165Z,8.17
2019-02-21T00:28:13.182Z,8.15
2019-02-21T00:30:42.198Z,8.18
2019-02-21T00:33:11.579Z,8.15
2019-02-21T00:35:40.589Z,8.14
2019-02-21T00:38:09.537Z,8.14
2019-02-21T00:40:38.578Z,8.15
2019-02-21T00:43:07.597Z,8.11
2019-02-21T00:45:36.653Z,8.18
2019-02-21T00:48:05.676Z,8.16
2019-02-21T00:50:34.617Z,8.18
2019-02-21T00:53:04.028Z,8.19
2019-02-21T00:55:33.045Z,8.18
2019-02-21T00:58:02.106Z,8.18
2019-02-21T01:00:31.487Z,8.15
2019-02-21T01:03:00.497Z,8.20
2019-02-21T01:05:29.553Z,8.19
2019-02-21T01:07:58.574Z,8.23
2019-02-21T01:10:27.642Z,8.25
2019-02-21T01:12:56.667Z,8.28
2019-02-21T01:15:25.737Z,8.20
2019-02-21T01:17:54.801Z,8.22
2019-02-21T01:20:23.855Z,8.23
2019-02-21T01:22:52.882Z,8.22
2019-02-21T01:25:22.199Z,8.18
2019-02-21T01:27:51.261Z,8.19
2019-02-21T01:30:20.188Z,8.15
2019-02-21T01:32:49.210Z,8.19
2019-02-21T01:35:18.279Z,8.19
2019-02-21T01:37:47.209Z,8.14
2019-02-21T01:40:16.226Z,8.14
2019-02-21T01:42:45.652Z,8.20
2019-02-21T01:45:14.658Z,8.12
2019-02-21T01:47:43.594Z,8.07
2019-02-21T01:50:12.760Z,8.04
2019-02-21T01:52:41.997Z,8.02
2019-02-21T01:55:11.155Z,7.96
2019-02-21T01:57:40.250Z,7.98
2019-02-21T02:00:09.933Z,8.06
2019-02-21T02:02:38.982Z,8.06
2019-02-21T02:05:08.320Z,8.09
2019-02-21T02:07:38.287Z,8.07
2019-02-21T02:10:08.131Z,8.05
2019-02-21T02:12:37.147Z,8.05
2019-02-21T02:15:06.998Z,8.06
2019-02-21T02:17:36.067Z,8.13
2019-02-21T02:20:05.262Z,8.07
2019-02-21T02:22:34.335Z,8.04
2019-02-21T02:25:03.341Z,8.06
2019-02-21T02:27:32.326Z,8.07
2019-02-21T02:30:01.353Z,8.09
2019-02-21T02:32:30.423Z,8.11
2019-02-21T02:35:00.026Z,8.17
2019-02-21T02:37:29.217Z,8.11
2019-02-21T02:39:58.309Z,8.08
2019-02-21T02:42:27.222Z,8.09
2019-02-21T02:44:56.233Z,8.11
2019-02-21T02:47:25.291Z,8.07
2019-02-21T02:49:54.214Z,8.07
2019-02-21T02:52:23.237Z,8.09
2019-02-21T02:54:52.171Z,8.05
2019-02-21T02:57:21.151Z,8.02
2019-02-21T02:59:50.222Z,8.00
2019-02-21T03:02:19.242Z,7.94
2019-02-21T03:04:48.700Z,7.94
2019-02-21T03:07:18.026Z,7.85
2019-02-21T03:09:47.475Z,7.84
2019-02-21T03:12:16.455Z,7.88
2019-02-21T03:14:45.498Z,7.87
2019-02-21T03:18:02.970Z,7.83
2019-02-21T03:20:32.330Z,7.81
2019-02-21T03:23:01.653Z,7.78
2019-02-21T03:25:30.682Z,7.76
2019-02-21T03:27:59.848Z,7.76
2019-02-21T03:30:28.989Z,7.69
2019-02-21T03:32:58.345Z,7.66
2019-02-21T03:35:27.408Z,7.61
2019-02-21T03:37:56.452Z,7.66
2019-02-21T03:40:25.473Z,7.60
2019-02-21T03:42:54.511Z,7.51
2019-02-21T03:45:23.619Z,7.49
2019-02-21T03:47:53.038Z,7.46
2019-02-21T03:50:22.085Z,7.47
2019-02-21T03:52:51.103Z,7.48
2019-02-21T03:55:20.168Z,7.47
2019-02-21T03:57:49.494Z,7.46
2019-02-21T04:00:18.583Z,7.48
2019-02-21T04:02:47.590Z,7.49
2019-02-21T04:05:16.606Z,7.54
2019-02-21T04:07:45.682Z,7.63
2019-02-21T04:24:21.791Z,7.42
2019-02-21T04:26:51.101Z,7.43
2019-02-21T04:29:20.118Z,7.47
2019-02-21T04:31:49.423Z,7.48
2019-02-21T04:34:18.722Z,7.50
2019-02-21T04:36:48.086Z,7.46
2019-02-21T04:39:17.139Z,7.54
2019-02-21T04:41:46.442Z,7.46
2019-02-21T04:44:15.501Z,7.45
2019-02-21T04:46:44.561Z,7.42
2019-02-21T04:49:13.586Z,7.42
2019-02-21T04:51:42.650Z,7.32
2019-02-21T04:54:11.682Z,7.33
2019-02-21T04:56:40.820Z,7.38
2019-02-21T04:59:09.813Z,7.36
2019-02-21T05:01:40.412Z,7.37
2019-02-21T05:04:09.602Z,7.36
2019-02-21T05:06:38.721Z,7.32
2019-02-21T05:09:07.724Z,7.32
2019-02-21T05:11:36.733Z,7.34
2019-02-21T05:14:05.814Z,7.30
2019-02-21T05:16:34.817Z,7.34
2019-02-21T05:19:04.214Z,7.36
2019-02-21T05:21:33.327Z,7.30
2019-02-21T05:24:02.331Z,7.32
2019-02-21T05:26:36.871Z,7.35
2019-02-21T05:29:07.955Z,7.38
2019-02-21T05:31:44.543Z,7.36
2019-02-21T05:34:31.481Z,7.34
2019-02-21T05:37:34.944Z,7.37
2019-02-21T05:40:17.204Z,7.38
2019-02-21T05:43:03.264Z,7.36
2019-02-21T05:45:50.137Z,7.43
2019-02-21T05:48:40.086Z,7.40
2019-02-21T05:51:21.826Z,7.39
2019-02-21T05:54:12.706Z,7.37
2019-02-21T05:56:58.944Z,7.37
2019-02-21T05:59:45.221Z,7.39
2019-02-21T06:02:33.232Z,7.38
2019-02-21T06:05:14.033Z,7.37
2019-02-21T06:08:01.199Z,7.38
2019-02-21T06:10:48.166Z,7.38
2019-02-21T06:13:28.114Z,7.32
2019-02-21T06:16:32.999Z,7.31
2019-02-21T06:19:16.651Z,7.37
2019-02-21T06:22:10.622Z,7.40
2019-02-21T06:24:43.307Z,7.33
2019-02-21T06:27:31.342Z,7.37
2019-02-21T06:30:10.828Z,7.41
2019-02-21T06:32:40.782Z,7.42
2019-02-21T06:35:10.140Z,7.42
2019-02-21T06:37:39.078Z,7.43
2019-02-21T06:40:08.200Z,7.42
2019-02-21T06:42:37.355Z,7.47
2019-02-21T06:45:06.544Z,7.48
2019-02-21T06:47:35.877Z,7.50
2019-02-21T06:50:05.109Z,7.55
2019-02-21T06:52:34.170Z,7.66
2019-02-21T06:55:03.186Z,7.68
2019-02-21T06:57:32.901Z,7.70
2019-02-21T07:00:02.013Z,7.73
2019-02-21T07:02:31.423Z,7.68
2019-02-21T07:05:00.693Z,7.72
2019-02-21T07:07:29.746Z,7.73
2019-02-21T07:09:58.798Z,7.69
2019-02-21T07:12:27.838Z,7.72
2019-02-21T07:14:56.888Z,7.77
2019-02-21T07:17:27.538Z,7.79
2019-02-21T07:19:56.733Z,7.82
2019-02-21T07:22:25.740Z,7.83
2019-02-21T07:24:58.569Z,7.90
2019-02-21T07:27:27.612Z,7.87
2019-02-21T07:29:56.574Z,7.91
2019-02-21T07:32:25.689Z,7.92
2019-02-21T07:34:54.708Z,8.00
2019-02-21T07:37:23.749Z,8.04
2019-02-21T07:39:52.791Z,8.11
2019-02-21T07:42:21.809Z,8.04
2019-02-21T07:44:51.064Z,8.04
2019-02-21T07:47:20.086Z,8.03
2019-02-21T07:49:49.098Z,8.01
2019-02-21T07:52:18.098Z,7.96
2019-02-21T07:54:49.483Z,8.06
2019-02-21T07:57:17.882Z,8.09
2019-02-21T07:59:46.905Z,8.13
2019-02-21T08:02:15.914Z,8.16
2019-02-21T08:04:44.838Z,8.20
2019-02-21T08:07:13.841Z,8.16
2019-02-21T08:09:42.887Z,8.17
2019-02-21T08:12:11.938Z,8.11
2019-02-21T08:14:43.353Z,8.12
2019-02-21T08:17:16.311Z,8.23
2019-02-21T08:19:45.520Z,8.14
2019-02-21T08:22:14.959Z,8.14
2019-02-21T08:24:44.014Z,8.14
2019-02-21T08:27:13.078Z,8.23
2019-02-21T08:29:42.094Z,8.28
2019-02-21T08:32:12.859Z,8.27
2019-02-21T08:34:45.016Z,8.18
2019-02-21T08:37:14.030Z,8.03
2019-02-21T08:39:43.085Z,8.13
2019-02-21T08:42:12.095Z,8.17
2019-02-21T08:44:41.152Z,8.25
2019-02-21T08:47:11.455Z,8.17
2019-02-21T08:49:40.493Z,8.33
2019-02-21T08:52:09.476Z,8.48
2019-02-21T08:54:38.487Z,8.50
2019-02-21T08:57:07.537Z,8.66
2019-02-21T08:59:36.597Z,8.84
2019-02-21T09:02:05.921Z,8.90
2019-02-21T09:04:35.290Z,8.87
2019-02-21T09:07:04.344Z,8.86
2019-02-21T09:09:33.577Z,8.73
2019-02-21T09:12:05.423Z,8.80
2019-02-21T09:14:33.639Z,8.83
2019-02-21T09:17:02.649Z,8.89
2019-02-21T09:19:31.673Z,8.85
2019-02-21T09:22:00.706Z,8.74
2019-02-21T09:24:38.260Z,8.77
2019-02-21T09:27:00.509Z,8.72
2019-02-21T09:29:29.505Z,8.65
2019-02-21T09:31:58.569Z,8.75
2019-02-21T09:34:27.578Z,8.78
2019-02-21T09:36:56.519Z,8.79
2019-02-21T09:39:25.578Z,8.81
2019-02-21T09:41:54.623Z,8.77
2019-02-21T09:44:27.252Z,8.81
2019-02-21T09:46:54.366Z,8.94
2019-02-21T09:49:23.384Z,8.87
2019-02-21T09:51:52.442Z,8.88
2019-02-21T09:54:21.451Z,8.80
2019-02-21T09:56:53.030Z,9.00
2019-02-21T09:59:21.490Z,9.03
2019-02-21T10:01:50.534Z,9.11
2019-02-21T10:04:19.584Z,9.23
2019-02-21T10:06:48.638Z,9.32
2019-02-21T10:09:17.650Z,9.31
2019-02-21T10:11:46.701Z,9.18
2019-02-21T10:14:15.713Z,9.16
2019-02-21T10:16:44.818Z,9.17
2019-02-21T10:19:13.834Z,9.32
2019-02-21T10:21:42.848Z,9.26
2019-02-21T10:24:11.897Z,9.38
2019-02-21T10:26:40.950Z,9.35
2019-02-21T10:29:09.966Z,9.21
2019-02-21T10:31:38.976Z,9.22
2019-02-21T10:34:08.026Z,9.24
2019-02-21T10:36:37.069Z,9.13
2019-02-21T10:39:07.043Z,9.32
2019-02-21T10:41:36.089Z,9.36
2019-02-21T10:44:05.136Z,9.43
2019-02-21T10:46:34.470Z,9.43
2019-02-21T10:49:03.573Z,9.53
2019-02-21T10:51:32.604Z,9.60
2019-02-21T10:54:01.617Z,9.66
2019-02-21T10:56:30.698Z,9.79
2019-02-21T10:58:59.757Z,9.70
2019-02-21T11:01:29.029Z,9.77
2019-02-21T11:03:58.024Z,9.75
2019-02-21T11:06:27.038Z,9.72
2019-02-21T11:08:56.074Z,9.75
2019-02-21T11:11:25.213Z,9.74
2019-02-21T11:13:54.267Z,9.84
2019-02-21T11:16:23.338Z,9.84
2019-02-21T11:18:52.355Z,9.87
2019-02-21T11:21:21.459Z,9.77
2019-02-21T11:23:50.462Z,9.71
2019-02-21T11:26:19.522Z,9.88
2019-02-21T11:28:48.543Z,9.98
2019-02-21T11:31:17.529Z,10.04
2019-02-21T11:33:46.555Z,10.02
2019-02-21T11:36:15.616Z,10.02
2019-02-21T11:38:44.694Z,9.88
2019-02-21T11:41:14.082Z,9.83
2019-02-21T11:43:43.139Z,9.76
2019-02-21T11:46:12.426Z,9.87
2019-02-21T11:48:41.470Z,9.96
2019-02-21T11:51:10.527Z,10.18
2019-02-21T11:53:39.592Z,10.20
2019-02-21T11:56:08.643Z,10.20
2019-02-21T11:58:37.661Z,10.09
2019-02-21T12:01:09.860Z,9.96
2019-02-21T12:03:39.281Z,9.78
2019-02-21T12:06:08.293Z,9.82
2019-02-21T12:08:37.346Z,9.90
2019-02-21T12:11:06.358Z,9.83
2019-02-21T12:13:35.412Z,9.79
2019-02-21T12:16:04.475Z,9.79
2019-02-21T12:18:33.411Z,9.73
2019-02-21T12:21:02.434Z,9.70
2019-02-21T12:23:31.503Z,9.60
2019-02-21T12:26:00.513Z,9.57
2019-02-21T12:28:29.534Z,9.63
2019-02-21T12:30:59.427Z,9.59
2019-02-21T12:33:28.446Z,9.59
2019-02-21T12:35:59.434Z,9.56
2019-02-21T12:38:28.522Z,9.67
2019-02-21T12:40:57.462Z,9.62
2019-02-21T12:43:26.518Z,9.62
2019-02-21T12:46:00.721Z,9.55
2019-02-21T12:48:29.748Z,9.62
2019-02-21T12:50:59.034Z,9.67
2019-02-21T12:53:28.358Z,9.55
2019-02-21T12:55:57.471Z,9.57
2019-02-21T12:58:26.810Z,9.52
2019-02-21T13:00:55.823Z,9.59
2019-02-21T13:03:24.854Z,9.67
2019-02-21T13:05:53.865Z,9.62
2019-02-21T13:08:22.917Z,9.69
2019-02-21T13:10:51.926Z,9.73
2019-02-21T13:13:20.905Z,9.65
2019-02-21T13:15:50.214Z,9.67
2019-02-21T13:18:19.268Z,9.74
2019-02-21T13:20:48.616Z,9.71
2019-02-21T13:23:17.672Z,9.66
2019-02-21T13:25:46.687Z,9.68
2019-02-21T13:28:15.736Z,9.70
2019-02-21T13:30:44.759Z,9.62
2019-02-21T13:33:13.753Z,9.63
2019-02-21T13:35:52.304Z,9.65
2019-02-21T13:38:13.833Z,9.68
2019-02-21T13:40:42.837Z,9.56
2019-02-21T13:43:11.894Z,9.70
2019-02-21T13:45:40.946Z,9.75
2019-02-21T13:48:09.955Z,9.66
2019-02-21T13:50:39.091Z,9.55
2019-02-21T13:53:08.108Z,9.58
2019-02-21T13:55:37.186Z,9.54
2019-02-21T13:58:06.203Z,9.41
2019-02-21T14:00:35.250Z,9.34
2019-02-21T14:03:04.311Z,9.32
2019-02-21T14:05:33.325Z,9.26
2019-02-21T14:08:02.333Z,9.24
2019-02-21T14:10:31.391Z,9.20
2019-02-21T14:13:00.478Z,9.19
2019-02-21T14:15:29.493Z,9.21
2019-02-21T14:17:58.466Z,9.18
2019-02-21T14:20:27.540Z,8.97
2019-02-21T14:22:56.609Z,8.96
2019-02-21T14:25:28.089Z,8.91
2019-02-21T14:27:56.334Z,8.89
2019-02-21T14:30:25.427Z,8.93
2019-02-21T14:32:54.479Z,8.96
2019-02-21T14:35:23.483Z,8.93
2019-02-21T14:37:52.520Z,8.93
2019-02-21T14:40:21.544Z,8.93
2019-02-21T14:42:50.586Z,8.96
2019-02-21T14:45:19.657Z,8.96
2019-02-21T14:47:48.697Z,9.06
2019-02-21T14:50:17.714Z,9.09
2019-02-21T14:52:47.054Z,9.19
2019-02-21T14:55:16.097Z,9.24
2019-02-21T14:57:45.381Z,9.27
2019-02-21T15:00:20.134Z,9.37
2019-02-21T15:02:49.144Z,9.43
2019-02-21T15:05:18.591Z,9.43
2019-02-21T15:07:47.643Z,9.54
2019-02-21T15:10:16.948Z,9.57
2019-02-21T15:12:45.989Z,9.62
2019-02-21T15:15:16.194Z,9.48
2019-02-21T15:17:45.573Z,9.41
2019-02-21T15:20:15.418Z,9.47
2019-02-21T15:22:44.452Z,9.39
2019-02-21T15:25:13.911Z,9.38
2019-02-21T15:27:42.935Z,9.30
2019-02-21T15:30:14.516Z,9.19
2019-02-21T15:32:44.932Z,9.14
2019-02-21T15:35:14.571Z,9.13
2019-02-21T15:37:45.084Z,8.97
2019-02-21T15:40:14.314Z,8.86
2019-02-21T15:42:43.483Z,8.88
2019-02-21T15:45:22.425Z,8.91
2019-02-21T15:47:45.343Z,8.93
2019-02-21T15:50:14.399Z,8.87
2019-02-21T15:52:43.999Z,8.91
2019-02-21T15:55:14.053Z,8.98
2019-02-21T15:57:43.115Z,8.91
2019-02-21T16:00:14.257Z,8.86
2019-02-21T16:02:43.273Z,8.83
2019-02-21T16:05:12.321Z,8.76
2019-02-21T16:07:41.371Z,8.81
2019-02-21T16:10:12.786Z,8.83
2019-02-21T16:12:42.299Z,8.74
2019-02-21T16:15:12.207Z,8.75
2019-02-21T16:17:41.212Z,8.70
2019-02-21T16:20:11.669Z,8.72
2019-02-21T16:22:41.034Z,8.71
2019-02-21T16:25:12.017Z,8.69
2019-02-21T16:27:41.029Z,8.73
2019-02-21T16:30:12.807Z,8.72
2019-02-21T16:32:42.017Z,8.69
2019-02-21T16:35:11.427Z,8.75
2019-02-21T16:37:40.497Z,8.76
2019-02-21T16:40:11.088Z,8.76
2019-02-21T16:42:40.128Z,8.70
2019-02-21T16:45:10.715Z,8.74
2019-02-21T16:47:39.723Z,8.75
2019-02-21T16:50:09.784Z,8.71
2019-02-21T16:52:38.843Z,8.71
2019-02-21T16:55:09.825Z,8.69
2019-02-21T16:57:38.891Z,8.70
2019-02-21T17:00:09.076Z,8.73
2019-02-21T17:02:38.087Z,8.72
2019-02-21T17:05:07.384Z,8.74
2019-02-21T17:07:36.430Z,8.72
2019-02-21T17:10:05.869Z,8.73
2019-02-21T17:12:37.004Z,8.73
2019-02-21T17:15:05.984Z,8.67
2019-02-21T17:17:34.989Z,8.69
2019-02-21T17:20:04.412Z,8.72
2019-02-21T17:22:33.439Z,8.69
2019-02-21T17:25:02.485Z,8.66
2019-02-21T17:27:31.506Z,8.68
2019-02-21T17:30:00.559Z,8.67
2019-02-21T17:32:29.642Z,8.68
2019-02-21T17:34:58.705Z,8.69
2019-02-21T17:37:27.726Z,8.68
2019-02-21T17:39:56.739Z,8.62
2019-02-21T17:42:25.804Z,8.59
2019-02-21T17:44:54.730Z,8.54
2019-02-21T17:47:23.738Z,8.48
2019-02-21T17:49:52.788Z,8.43
2019-02-21T17:52:21.818Z,8.48
2019-02-21T17:54:50.869Z,8.44
2019-02-21T17:57:19.995Z,8.41
2019-02-21T17:59:49.258Z,8.43
2019-02-21T18:02:18.269Z,8.41
2019-02-21T18:04:47.325Z,8.49
2019-02-21T18:07:16.352Z,8.41
2019-02-21T18:09:45.412Z,8.40
2019-02-21T18:12:14.339Z,8.47
2019-02-21T18:14:43.361Z,8.38
2019-02-21T18:17:12.412Z,8.34
2019-02-21T18:19:41.469Z,8.27
2019-02-21T18:22:10.516Z,8.28
2019-02-21T18:24:39.580Z,8.08
2019-02-21T18:27:08.594Z,8.08
2019-02-21T18:29:37.649Z,8.14
2019-02-21T18:32:06.761Z,8.13
2019-02-21T18:34:35.811Z,8.03
2019-02-21T18:37:04.925Z,8.04
2019-02-21T18:39:33.987Z,8.04
2019-02-21T18:42:02.999Z,8.05
2019-02-21T18:44:32.027Z,8.05
2019-02-21T18:47:01.075Z,7.97
2019-02-21T18:49:30.157Z,7.93
2019-02-21T18:51:59.176Z,8.01
2019-02-21T18:54:28.207Z,8.07
2019-02-21T18:56:57.300Z,7.83
2019-02-21T18:59:31.694Z,7.81
2019-02-21T19:01:57.396Z,7.82
2019-02-21T19:04:26.458Z,7.80
2019-02-21T19:06:55.473Z,7.83
2019-02-21T19:09:24.594Z,7.84
2019-02-21T19:11:53.651Z,7.88
2019-02-21T19:14:22.713Z,7.82
2019-02-21T19:16:51.791Z,7.86
2019-02-21T19:19:20.846Z,7.92
2019-02-21T19:21:49.898Z,7.81
2019-02-21T19:24:18.947Z,7.83
2019-02-21T19:26:48.033Z,7.85
2019-02-21T19:29:17.054Z,7.85
2019-02-21T19:31:46.232Z,7.78
2019-02-21T19:34:15.251Z,7.74
2019-02-21T19:36:44.268Z,7.78
2019-02-21T19:39:13.338Z,7.72
2019-02-21T19:41:42.425Z,7.78
2019-02-21T19:44:11.479Z,7.74
2019-02-21T19:46:40.535Z,7.74
2019-02-21T19:49:09.588Z,7.80
2019-02-21T19:51:38.644Z,7.74
2019-02-21T19:54:07.670Z,7.73
2019-02-21T19:56:36.741Z,7.71
2019-02-21T19:59:05.757Z,7.75
2019-02-21T20:01:35.090Z,7.69
2019-02-21T20:04:04.074Z,7.72
2019-02-21T20:06:33.101Z,7.66
2019-02-21T20:09:02.185Z,7.69
2019-02-21T20:11:31.240Z,7.74
2019-02-21T20:14:00.259Z,7.73
2019-02-21T20:16:29.327Z,7.79
2019-02-21T20:18:58.345Z,7.81
2019-02-21T20:21:27.498Z,7.88
2019-02-21T20:23:56.555Z,7.86
2019-02-21T20:26:25.611Z,7.83
2019-02-21T20:28:55.258Z,7.88
2019-02-21T20:31:24.482Z,7.89
2019-02-21T20:33:53.545Z,7.90
2019-02-21T20:36:22.566Z,7.93
2019-02-21T20:38:51.646Z,7.96
2019-02-21T20:41:20.590Z,7.86
2019-02-21T20:43:49.581Z,7.84
2019-02-21T20:46:18.589Z,7.85
2019-02-21T20:48:47.610Z,7.91
2019-02-21T20:51:16.670Z,7.87
2019-02-21T20:53:45.614Z,7.80
2019-02-21T20:56:14.549Z,7.82
2019-02-21T20:58:43.630Z,7.77
2019-02-21T21:01:12.699Z,7.85
2019-02-21T21:03:42.037Z,7.79
2019-02-21T21:06:11.080Z,7.81
2019-02-21T21:08:43.360Z,7.79
2019-02-21T21:11:10.878Z,7.74
2019-02-21T21:13:39.944Z,7.71
2019-02-21T21:16:09.003Z,7.69
2019-02-21T21:18:38.362Z,7.72
2019-02-21T21:21:07.343Z,7.71
2019-02-21T21:23:36.354Z,7.68
2019-02-21T21:26:05.413Z,7.76
2019-02-21T21:28:34.422Z,7.74
2019-02-21T21:31:03.480Z,7.75
2019-02-21T21:33:32.538Z,7.76
2019-02-21T21:36:01.772Z,7.75
2019-02-21T21:38:30.838Z,7.75
2019-02-21T21:41:00.290Z,7.75
2019-02-21T21:43:29.303Z,7.71
2019-02-21T21:45:58.357Z,7.64
2019-02-21T21:48:27.370Z,7.69
2019-02-21T21:50:56.425Z,7.69
2019-02-21T21:53:25.486Z,7.68
2019-02-21T21:55:54.493Z,7.68
2019-02-21T21:58:23.541Z,7.63
2019-02-21T22:00:52.684Z,7.63
2019-02-21T22:03:21.752Z,7.62
2019-02-21T22:05:50.688Z,7.65
2019-02-21T22:08:19.750Z,7.65
2019-02-21T22:10:49.046Z,7.64
2019-02-21T22:13:18.038Z,7.65
2019-02-21T22:15:46.977Z,7.63
2019-02-21T22:18:15.968Z,7.61
2019-02-21T22:20:45.003Z,7.65
2019-02-21T22:23:14.054Z,7.65
2019-02-21T22:25:43.114Z,7.58
2019-02-21T22:28:12.216Z,7.60
2019-02-21T22:30:41.243Z,7.60
2019-02-21T22:33:10.301Z,7.58
2019-02-21T22:35:39.318Z,7.51
2019-02-21T22:38:08.383Z,7.57
2019-02-21T22:40:37.399Z,7.56
2019-02-21T22:43:06.408Z,7.60
2019-02-21T22:45:35.464Z,7.58
2019-02-21T22:48:04.826Z,7.60
2019-02-21T22:50:33.888Z,7.63
2019-02-21T22:53:02.899Z,7.61
2019-02-21T22:55:32.201Z,7.59
2019-02-21T22:58:01.259Z,7.60
2019-02-21T23:01:05.409Z,7.63
2019-02-21T23:03:44.245Z,7.61
2019-02-21T23:06:36.877Z,7.53
2019-02-21T23:09:09.558Z,7.51
2019-02-21T23:11:38.577Z,7.38
2019-02-21T23:14:07.627Z,7.34
2019-02-21T23:16:36.982Z,7.30
2019-02-21T23:19:06.032Z,7.25
2019-02-21T23:21:35.089Z,7.21
2019-02-21T23:24:04.103Z,7.20
2019-02-21T23:26:33.149Z,7.22
2019-02-21T23:29:02.542Z,7.19
2019-02-21T23:31:31.601Z,7.26
2019-02-21T23:34:01.011Z,7.30
2019-02-21T23:36:30.357Z,7.33
2019-02-21T23:38:59.375Z,7.36
2019-02-21T23:41:28.442Z,7.36
2019-02-21T23:43:57.460Z,7.39
2019-02-21T23:46:26.514Z,7.50
2019-02-21T23:48:55.527Z,7.54
2019-02-21T23:51:24.843Z,7.54
2019-02-21T23:54:02.838Z,7.56
2019-02-21T23:56:24.693Z,7.60
2019-02-21T23:58:53.721Z,7.66
